首页
METAR-TAF:

METAR-TAF

机场 :

山打根国际机场

山打根, 马来西亚

纬度: 05-54N, 经度: 118-04E, 海拔: 12米

当前天气观测

该预报发布于1小时和11分钟前的21:00 UTC
风速2节,风向多变
温度 26°C
湿度 94%
气压 1009 hPa
能见度10公里或以上
少量云层高于1600英尺

METAR: WBKS 282100Z VRB02KT 9999 FEW016 26/25 Q1009

时间: 06:11 (22:11 UTC)

预报

该预报发布于5小时和11分钟前的17:00 UTC
预报有效从28日的 18点(UTC)到 29日的 18点(UTC)
风速5节,风向西转西南
能见度10公里或以上
少量云层高于1600英尺
成为
从 29日的 00点(UTC)到 29日的 02点(UTC)
风速7节,风向

TAF: WBKS 281700Z 2818/2918 25005KT 9999 FEW016 BECMG 2900/2902 18007KT

超过4000个机场的气象观测和天气预报(METAR&TAF报告)。

可查询的气象台以黄色和红色小点在地图上表示。

将鼠标移到小点上方,可查看气象台名称。

然后点击查看天气观测和预报。

如需切换地图:点击带黑十字的绿色按钮放大地图;点击带横线的绿色按钮缩小地图;或者点击绿色箭头查看邻近地区的地图。


METAR-TAF: